Time;durP1;ratioP1;P1;durP2;ratioP2;P2;SDS_P1;SDS_P2;PMS_P1;PMS_P2;Temp;Humidity;BMP_temperature;BMP_pressure;BME280_temperature;BME280_humidity;BME280_pressure;Samples;Min_cycle;Max_cycle;Signal;HPM_P1;HPM_P2
2022/12/14 01:35:14;;;;;;;38.10;22.60;;;;;;;-2.38;96.76;100738.09;105418;1306;557697;-60
2022/12/14 01:37:40;;;;;;;46.00;24.30;;;;;;;-0.60;83.73;100736.98;105579;1308;22432;-59
2022/12/14 01:40:06;;;;;;;53.40;27.30;;;;;;;-0.26;77.57;100739.79;105567;1310;21963;-59
2022/12/14 01:42:34;;;;;;;54.80;29.90;;;;;;;-0.14;75.26;100740.59;105616;1310;22036;-59
2022/12/14 01:45:00;;;;;;;59.50;31.40;;;;;;;0.09;73.96;100744.19;105608;1311;21975;-60
2022/12/14 01:47:36;;;;;;;62.20;32.80;;;;;;;0.27;73.28;100742.23;105414;1309;270215;-59
2022/12/14 01:50:08;;;;;;;64.00;32.50;;;;;;;0.34;72.70;100746.25;105674;1309;21955;-61
2022/12/14 01:52:39;;;;;;;89.20;39.50;;;;;;;0.44;72.15;100749.90;105679;1309;23695;-60
2022/12/14 01:55:13;;;;;;;93.90;41.50;;;;;;;0.53;71.52;100750.05;105544;1309;21962;-61
2022/12/14 01:57:41;;;;;;;80.40;37.30;;;;;;;0.57;71.32;100751.89;105731;1309;21967;-60
2022/12/14 02:00:08;;;;;;;76.10;38.00;;;;;;;0.66;70.86;100751.02;105705;1309;21975;-61
2022/12/14 02:02:35;;;;;;;65.70;34.70;;;;;;;0.72;70.59;100755.67;105820;1308;22021;-61
2022/12/14 02:05:01;;;;;;;57.60;34.40;;;;;;;0.73;70.24;100758.84;105728;1307;21967;-60
2022/12/14 02:07:27;;;;;;;40.10;24.80;;;;;;;0.75;69.94;100757.00;105608;1305;21949;-60
2022/12/14 02:09:56;;;;;;;35.30;22.70;;;;;;;0.67;69.64;100755.35;105675;1309;21966;-61
2022/12/14 02:12:31;;;;;;;35.60;21.40;;;;;;;0.63;69.58;100758.51;105031;1310;1002585;-61
2022/12/14 02:14:56;;;;;;;38.40;24.00;;;;;;;0.61;69.46;100762.90;105669;1308;21968;-61
2022/12/14 02:17:22;;;;;;;33.40;21.30;;;;;;;0.67;69.17;100769.33;105606;1310;21955;-60
2022/12/14 02:19:48;;;;;;;35.80;21.30;;;;;;;0.76;68.81;100768.08;105681;1304;21960;-61
2022/12/14 02:22:45;;;;;;;38.90;24.00;;;;;;;0.74;68.58;100768.02;105794;1307;21962;-60
2022/12/14 02:25:38;;;;;;;42.00;25.80;;;;;;;0.82;68.02;100771.94;105016;1308;1002734;-61
2022/12/14 02:28:32;;;;;;;47.10;25.90;;;;;;;0.88;67.93;100778.68;105739;1309;21962;-61
2022/12/14 02:31:25;;;;;;;43.90;25.40;;;;;;;0.95;67.54;100776.83;105686;1309;22027;-61
2022/12/14 02:34:29;;;;;;;34.60;19.10;;;;;;;1.01;67.34;100786.88;105604;1307;22084;-61
2022/12/14 02:37:01;;;;;;;55.20;25.10;;;;;;;1.05;67.07;100785.64;105624;1308;21958;-61
2022/12/14 02:40:06;;;;;;;42.80;23.00;;;;;;;1.14;66.70;100781.60;105700;1308;21968;-61
2022/12/14 02:42:44;;;;;;;37.50;21.30;;;;;;;1.24;66.66;100784.50;104382;1314;1003260;-62
2022/12/14 02:45:19;;;;;;;32.40;19.10;;;;;;;1.27;66.68;100783.73;105165;1315;21962;-61
2022/12/14 02:47:54;;;;;;;30.10;17.60;;;;;;;1.27;66.52;100782.02;105456;1309;21960;-60
2022/12/14 02:50:39;;;;;;;31.50;19.60;;;;;;;1.30;66.04;100780.58;105667;1308;22006;-61
2022/12/14 02:53:42;;;;;;;31.80;18.60;;;;;;;1.33;66.05;100780.82;105052;1306;1002625;-60
2022/12/14 02:56:10;;;;;;;33.80;19.90;;;;;;;1.36;65.83;100785.95;105818;1304;21964;-61
2022/12/14 02:58:40;;;;;;;29.00;17.70;;;;;;;1.39;65.67;100788.79;105848;1308;21976;-61
2022/12/14 03:01:08;;;;;;;31.80;19.00;;;;;;;1.38;65.72;100789.10;105617;1308;23223;-61
2022/12/14 03:03:34;;;;;;;29.70;18.00;;;;;;;1.38;65.59;100787.17;105630;1304;21959;-61
2022/12/14 03:06:01;;;;;;;30.10;17.10;;;;;;;1.30;65.38;100791.45;105721;1304;21974;-60
2022/12/14 03:08:28;;;;;;;26.50;16.70;;;;;;;1.30;65.39;100792.30;105789;1309;22013;-61
2022/12/14 03:10:56;;;;;;;27.20;16.80;;;;;;;1.24;65.41;100792.48;105818;1308;22048;-61
2022/12/14 03:13:34;;;;;;;27.00;16.00;;;;;;;1.23;65.14;100797.44;105837;1309;21963;-60
2022/12/14 03:16:15;;;;;;;27.90;16.90;;;;;;;1.15;65.01;100796.84;105815;1309;21972;-61
2022/12/14 03:18:45;;;;;;;26.60;16.60;;;;;;;1.11;65.10;100796.88;105893;1309;21961;-61
2022/12/14 03:21:14;;;;;;;29.60;16.60;;;;;;;1.07;65.00;100795.91;105640;1308;21955;-61
2022/12/14 03:23:40;;;;;;;27.30;17.30;;;;;;;1.05;64.97;100798.77;105672;1304;21969;-60
2022/12/14 03:26:37;;;;;;;27.40;17.50;;;;;;;1.11;64.55;100793.61;105606;1294;22009;-61
2022/12/14 03:29:11;;;;;;;28.80;16.10;;;;;;;1.10;64.51;100794.78;105620;1309;21960;-61
2022/12/14 03:31:57;;;;;;;28.50;17.00;;;;;;;1.11;64.56;100795.84;105618;1308;21968;-61
2022/12/14 03:34:27;;;;;;;25.50;15.00;;;;;;;1.13;64.51;100795.23;105632;1306;21978;-61
2022/12/14 03:37:11;;;;;;;26.00;14.60;;;;;;;1.11;64.36;100792.23;105697;1304;22008;-61
2022/12/14 03:39:39;;;;;;;29.20;16.50;;;;;;;1.03;64.23;100797.33;105682;1307;21933;-61
2022/12/14 03:42:14;;;;;;;23.60;14.50;;;;;;;0.99;64.24;100805.48;105765;1307;21954;-61
2022/12/14 03:44:44;;;;;;;22.90;14.00;;;;;;;0.98;64.01;100812.70;105613;1306;21963;-61
2022/12/14 03:47:31;;;;;;;26.50;16.40;;;;;;;0.98;63.83;100817.38;105711;1306;21951;-61
2022/12/14 03:50:03;;;;;;;28.50;17.90;;;;;;;0.98;63.77;100816.85;105704;1306;21966;-62
2022/12/14 03:52:35;;;;;;;29.30;16.30;;;;;;;1.00;63.65;100820.89;105741;1301;21972;-61
2022/12/14 08:17:03;;;;;;;88.50;48.80;;;;;;;2.73;98.60;100993.65;105225;1302;557644;-59
2022/12/14 08:19:32;;;;;;;89.50;49.30;;;;;;;4.70;85.34;100979.75;105581;1310;22428;-60
2022/12/14 08:21:57;;;;;;;82.10;48.10;;;;;;;5.20;79.28;100981.62;105541;1313;22149;-63
2022/12/14 08:24:23;;;;;;;76.10;42.30;;;;;;;5.31;76.93;100983.20;105496;1313;21960;-60
2022/12/14 08:26:51;;;;;;;63.10;37.20;;;;;;;5.45;75.79;100986.26;105529;1313;22026;-60
2022/12/14 08:29:18;;;;;;;54.90;32.30;;;;;;;5.48;75.43;100987.18;105242;1310;227234;-62
2022/12/14 08:31:43;;;;;;;49.60;29.90;;;;;;;5.60;75.36;100984.10;105649;1309;22174;-61
2022/12/14 08:34:09;;;;;;;43.40;27.60;;;;;;;5.77;75.36;100984.57;105616;1309;22012;-61
2022/12/14 08:36:35;;;;;;;39.50;24.90;;;;;;;5.97;75.10;100986.64;105613;1310;21973;-61
2022/12/14 08:39:03;;;;;;;34.20;21.80;;;;;;;6.16;74.43;100985.05;105606;1309;22002;-61
2022/12/14 08:41:29;;;;;;;39.70;22.90;;;;;;;6.26;73.94;100983.81;105727;1309;23050;-60
2022/12/14 08:43:57;;;;;;;27.70;16.70;;;;;;;6.34;73.41;100978.70;105667;1310;22074;-60
2022/12/14 08:46:24;;;;;;;23.90;15.70;;;;;;;6.50;72.93;100976.48;105729;1308;22075;-63
2022/12/14 08:48:52;;;;;;;29.90;17.70;;;;;;;6.63;72.04;100970.38;105727;1309;23702;-60
2022/12/14 08:51:17;;;;;;;49.80;23.00;;;;;;;6.75;71.89;100967.77;105626;1310;21961;-61
2022/12/14 08:53:43;;;;;;;21.10;12.10;;;;;;;6.85;71.14;100966.65;105651;1310;21968;-61
2022/12/14 08:56:11;;;;;;;20.30;11.30;;;;;;;6.88;70.41;100967.20;105658;1304;22002;-60
2022/12/14 08:58:38;;;;;;;25.70;14.50;;;;;;;6.88;70.16;100969.47;105726;1310;21974;-63
2022/12/14 09:01:12;;;;;;;21.50;12.20;;;;;;;6.93;69.95;100967.44;105690;1307;21959;-62
2022/12/14 09:03:46;;;;;;;21.50;13.30;;;;;;;6.97;68.52;100965.75;105642;1307;21950;-61
2022/12/14 09:06:17;;;;;;;16.80;10.40;;;;;;;7.07;68.01;100961.33;105620;1307;21958;-61
2022/12/14 09:08:43;;;;;;;14.50;8.50;;;;;;;7.05;67.44;100965.13;105726;1307;21993;-61
2022/12/14 09:11:11;;;;;;;11.10;7.40;;;;;;;6.96;66.59;100965.74;105637;1307;21966;-62
2022/12/14 09:13:41;;;;;;;15.50;9.90;;;;;;;6.96;66.87;100963.46;105759;1307;23883;-62
2022/12/14 09:16:10;;;;;;;10.90;7.70;;;;;;;7.06;67.20;100965.16;105669;1302;22005;-61
2022/12/14 09:18:36;;;;;;;23.70;20.80;;;;;;;7.11;66.99;100962.59;105591;1307;21957;-61
2022/12/14 09:21:02;;;;;;;30.80;26.10;;;;;;;7.12;64.70;100965.39;105668;1307;21960;-61
2022/12/14 09:23:28;;;;;;;21.40;16.50;;;;;;;7.11;63.92;100966.25;105598;1307;21959;-60
2022/12/14 09:26:05;;;;;;;29.80;18.20;;;;;;;7.13;64.69;100963.66;105642;1304;21964;-61
2022/12/14 09:28:33;;;;;;;29.50;14.90;;;;;;;7.18;65.33;100961.27;105599;1307;21967;-61
2022/12/14 09:31:03;;;;;;;38.40;19.30;;;;;;;7.24;64.72;100957.33;105675;1307;22735;-61
2022/12/14 09:33:29;;;;;;;31.70;16.70;;;;;;;7.39;64.03;100952.95;105652;1310;21956;-61
2022/12/14 09:36:05;;;;;;;27.80;16.60;;;;;;;7.50;63.00;100954.63;105609;1309;21971;-60
2022/12/14 09:38:33;;;;;;;22.20;12.90;;;;;;;7.56;63.12;100955.20;105630;1309;21958;-60
2022/12/14 09:41:01;;;;;;;11.20;7.30;;;;;;;7.63;63.48;100960.15;105617;1307;22005;-61
2022/12/14 09:43:42;;;;;;;11.40;7.70;;;;;;;7.59;64.16;100960.29;104906;1307;1002618;-61
2022/12/14 09:46:30;;;;;;;12.40;7.30;;;;;;;7.65;64.79;100962.97;105597;1309;21967;-61
2022/12/14 09:48:57;;;;;;;11.10;6.50;;;;;;;7.79;63.40;100966.05;105711;1309;23073;-60
2022/12/14 09:51:26;;;;;;;9.40;6.70;;;;;;;7.88;62.64;100968.92;105388;1310;21964;-60
2022/12/14 09:53:55;;;;;;;9.20;6.60;;;;;;;7.88;63.02;100965.61;105707;1307;21972;-61
2022/12/14 09:56:20;;;;;;;10.10;6.90;;;;;;;7.84;63.26;100964.70;105623;1307;21976;-60
2022/12/14 09:58:55;;;;;;;10.70;6.50;;;;;;;7.93;63.23;100963.04;105827;1307;21955;-60
2022/12/14 10:01:21;;;;;;;11.80;7.70;;;;;;;7.96;62.84;100962.70;105734;1307;21957;-61
2022/12/14 10:03:50;;;;;;;10.90;7.10;;;;;;;7.94;61.83;100960.07;105634;1307;21964;-60
2022/12/14 10:06:40;;;;;;;10.40;6.40;;;;;;;7.95;61.63;100955.35;105628;1307;21981;-61
2022/12/14 10:09:09;;;;;;;11.10;7.00;;;;;;;8.04;62.33;100950.35;105602;1307;21959;-60
2022/12/14 10:12:06;;;;;;;8.80;6.20;;;;;;;8.09;62.74;100946.55;105634;1309;21964;-60
2022/12/14 10:14:55;;;;;;;9.00;5.90;;;;;;;8.25;62.07;100945.77;105647;1308;21998;-60
2022/12/14 10:17:42;;;;;;;9.50;5.60;;;;;;;8.39;62.85;100945.51;105599;1307;21959;-60
2022/12/14 10:20:20;;;;;;;7.20;5.00;;;;;;;8.49;62.78;100943.83;105615;1310;21980;-60
2022/12/14 10:22:48;;;;;;;7.60;5.20;;;;;;;8.55;61.63;100941.77;105601;1310;21965;-60
2022/12/14 10:25:14;;;;;;;10.80;6.40;;;;;;;8.64;60.53;100938.32;105605;1308;21978;-60
2022/12/14 10:27:41;;;;;;;7.70;5.40;;;;;;;8.73;60.93;100932.92;105583;1308;21979;-60
2022/12/14 10:30:13;;;;;;;8.20;6.10;;;;;;;8.80;60.52;100924.74;105609;1309;21974;-60
2022/12/14 10:32:40;;;;;;;11.30;7.70;;;;;;;8.87;60.83;100920.73;105610;1308;22001;-61
2022/12/14 10:35:14;;;;;;;9.40;6.00;;;;;;;8.92;59.66;100923.73;105648;1310;22029;-61
2022/12/14 10:37:53;;;;;;;37.20;15.50;;;;;;;8.94;59.10;100919.36;105695;1305;22048;-60
2022/12/14 10:40:29;;;;;;;21.60;10.40;;;;;;;8.96;59.29;100915.35;105584;1310;21973;-60
2022/12/14 10:43:07;;;;;;;12.00;7.10;;;;;;;9.00;58.76;100908.71;105616;1302;21978;-60
2022/12/14 10:45:45;;;;;;;8.80;5.80;;;;;;;8.99;58.61;100903.27;105602;1309;21984;-60
2022/12/14 10:48:29;;;;;;;10.30;5.90;;;;;;;8.96;58.74;100900.46;105639;1309;21963;-60
2022/12/14 10:50:56;;;;;;;8.30;5.70;;;;;;;9.02;58.13;100901.36;105736;1308;21958;-60
2022/12/14 10:53:30;;;;;;;9.20;6.10;;;;;;;9.05;57.61;100895.95;105661;1310;21958;-60
2022/12/14 10:55:59;;;;;;;10.00;6.80;;;;;;;9.07;56.36;100891.91;105533;1310;21953;-60
2022/12/14 10:58:25;;;;;;;8.90;6.50;;;;;;;9.12;56.97;100891.58;105743;1307;22026;-60
2022/12/14 11:00:54;;;;;;;9.60;5.80;;;;;;;9.12;57.28;100884.39;105585;1309;21958;-60
2022/12/14 11:03:20;;;;;;;7.10;5.10;;;;;;;9.10;55.91;100884.73;105611;1307;21962;-60
2022/12/14 11:05:59;;;;;;;8.00;4.70;;;;;;;9.04;54.38;100890.51;105611;1309;22058;-61
2022/12/14 11:08:58;;;;;;;8.00;5.00;;;;;;;9.01;55.49;100894.89;105645;1305;21971;-60
2022/12/14 11:11:24;;;;;;;8.80;5.60;;;;;;;9.00;54.70;100893.66;105414;1307;21980;-60
2022/12/14 11:13:50;;;;;;;8.40;5.20;;;;;;;9.00;55.27;100891.73;105652;1309;21998;-60
2022/12/14 11:16:38;;;;;;;8.30;5.70;;;;;;;9.02;55.97;100898.20;104848;1308;1007340;-59
2022/12/14 11:19:12;;;;;;;9.90;7.10;;;;;;;9.02;55.19;100894.89;105639;1308;21962;-60
2022/12/14 11:21:38;;;;;;;10.40;6.80;;;;;;;8.99;55.74;100898.04;105659;1309;22032;-61
2022/12/14 11:24:05;;;;;;;10.90;7.40;;;;;;;8.96;54.92;100897.50;105650;1308;21959;-60
2022/12/14 11:26:36;;;;;;;11.90;7.70;;;;;;;8.89;53.03;100895.19;105593;1309;21939;-60
2022/12/14 11:29:04;;;;;;;15.20;8.50;;;;;;;8.79;53.09;100893.23;105721;1310;21961;-59
2022/12/14 11:31:36;;;;;;;14.10;9.10;;;;;;;8.83;55.70;100892.03;104887;1310;1002437;-59
2022/12/14 11:34:05;;;;;;;14.20;9.50;;;;;;;8.88;55.46;100892.39;105634;1307;21970;-59
2022/12/14 11:36:37;;;;;;;12.10;9.10;;;;;;;8.90;55.87;100895.38;105653;1310;21960;-59
2022/12/14 11:39:17;;;;;;;16.20;9.80;;;;;;;8.88;54.60;100897.45;105703;1309;21977;-60
2022/12/14 11:41:43;;;;;;;12.50;9.10;;;;;;;8.86;55.51;100900.77;105620;1307;21968;-59
2022/12/14 11:44:16;;;;;;;13.90;8.80;;;;;;;8.94;56.47;100901.70;105630;1305;22045;-59
2022/12/14 11:46:48;;;;;;;12.30;9.00;;;;;;;9.05;56.14;100902.06;104899;1310;1002228;-60
2022/12/14 11:49:41;;;;;;;12.40;8.30;;;;;;;9.11;55.97;100904.01;105784;1308;21973;-59
2022/12/14 11:52:07;;;;;;;12.30;8.60;;;;;;;9.15;55.90;100906.98;104917;1307;1002328;-59
2022/12/14 11:54:35;;;;;;;12.50;8.10;;;;;;;9.13;54.20;100905.76;105584;1308;21970;-59
2022/12/14 11:57:02;;;;;;;10.90;7.90;;;;;;;8.99;53.93;100904.33;105648;1307;21965;-59
2022/12/14 11:59:37;;;;;;;11.20;7.70;;;;;;;8.96;55.43;100901.34;105807;1308;21966;-59
2022/12/14 12:02:31;;;;;;;11.60;7.80;;;;;;;9.02;55.86;100900.14;104932;1301;1002496;-59
2022/12/14 12:05:17;;;;;;;17.30;9.70;;;;;;;9.10;55.48;100899.27;105522;1307;21973;-59
2022/12/14 12:07:50;;;;;;;18.30;11.00;;;;;;;9.18;55.95;100901.22;105606;1309;21962;-59
2022/12/14 12:10:27;;;;;;;12.30;7.60;;;;;;;9.25;55.88;100904.20;105572;1308;23461;-59
2022/12/14 12:12:59;;;;;;;30.20;13.90;;;;;;;9.23;55.42;100902.45;105628;1307;21973;-59
2022/12/14 12:15:38;;;;;;;14.60;8.50;;;;;;;9.11;55.37;100901.03;105620;1310;21960;-59
2022/12/14 12:18:05;;;;;;;41.60;15.70;;;;;;;9.01;54.90;100895.41;105007;1310;1003178;-58
2022/12/14 12:20:33;;;;;;;52.80;18.70;;;;;;;8.92;54.28;100890.83;105752;1308;21971;-59
2022/12/14 12:23:04;;;;;;;47.60;18.00;;;;;;;8.76;54.81;100898.83;105576;1310;21970;-60
2022/12/14 12:25:30;;;;;;;14.50;7.70;;;;;;;8.56;55.83;100899.45;105671;1308;21955;-59
2022/12/14 12:28:03;;;;;;;10.50;6.60;;;;;;;8.53;55.67;100901.02;105455;1304;21964;-59
2022/12/14 12:30:32;;;;;;;10.20;6.90;;;;;;;8.50;56.62;100904.85;105588;1310;21976;-58
2022/12/14 12:33:04;;;;;;;9.70;6.40;;;;;;;8.52;56.34;100905.21;105723;1308;21973;-58
2022/12/14 12:35:36;;;;;;;9.70;6.40;;;;;;;8.50;55.86;100899.60;105682;1307;21950;-58
2022/12/14 12:38:49;;;;;;;11.10;6.70;;;;;;;8.48;55.10;100897.64;105585;1309;23681;-60
2022/12/14 12:41:19;;;;;;;13.70;7.60;;;;;;;8.31;54.77;100898.24;105408;1310;23620;-58
2022/12/14 12:43:53;;;;;;;;;;;;;;;8.17;54.47;100903.23;105619;1309;21957;-59
2022/12/14 12:46:31;;;;;;;10.10;7.00;;;;;;;8.02;54.01;100908.39;105659;1307;21966;-60
2022/12/14 12:49:00;;;;;;;16.70;8.90;;;;;;;7.88;54.11;100908.46;105570;1310;21960;-58
2022/12/14 12:51:29;;;;;;;11.60;7.70;;;;;;;7.76;54.70;100907.68;105655;1307;21975;-59
2022/12/14 12:54:00;;;;;;;11.50;7.80;;;;;;;7.68;55.37;100910.95;105592;1307;21960;-59
2022/12/14 12:56:42;;;;;;;11.20;7.50;;;;;;;7.62;55.80;100912.98;105659;1309;22426;-58
2022/12/14 12:59:14;;;;;;;12.60;8.50;;;;;;;7.55;55.66;100912.58;105660;1310;21971;-60
2022/12/14 13:01:42;;;;;;;16.90;9.50;;;;;;;7.52;55.93;100917.27;105579;1306;21960;-60
2022/12/14 13:04:18;;;;;;;15.90;10.30;;;;;;;7.46;56.00;100918.44;104840;1309;1002309;-59
2022/12/14 13:06:50;;;;;;;14.80;9.40;;;;;;;7.47;55.95;100918.45;105614;1304;21995;-60
2022/12/14 13:09:38;;;;;;;18.00;9.80;;;;;;;7.48;56.19;100918.45;105700;1307;22001;-59
2022/12/14 19:03:49;;;;;;;27.10;15.90;;;;;;;3.14;97.01;100776.32;105020;1304;547859;-59
2022/12/14 19:06:20;;;;;;;26.80;15.60;;;;;;;5.75;83.69;100761.42;105502;1312;21987;-59
2022/12/14 19:12:34;;;;;;;29.10;15.60;;;;;;;6.82;73.81;100764.08;105235;1312;21976;-59
2022/12/14 19:15:00;;;;;;;22.50;13.60;;;;;;;6.95;73.09;100763.86;105247;1308;21975;-62
2022/12/14 19:17:26;;;;;;;20.30;11.70;;;;;;;7.03;72.65;100771.26;105161;1309;426320;-59
2022/12/14 19:19:52;;;;;;;17.90;11.20;;;;;;;7.14;72.24;100773.96;105605;1310;21985;-59
2022/12/14 19:22:18;;;;;;;17.70;9.20;;;;;;;7.26;72.01;100782.44;105560;1305;21975;-59
2022/12/14 19:24:43;;;;;;;15.20;9.00;;;;;;;7.33;71.48;100781.45;105509;1311;22444;-60
2022/12/14 19:27:09;;;;;;;15.90;9.60;;;;;;;7.51;70.66;100774.59;105528;1311;21984;-59
2022/12/14 19:29:35;;;;;;;18.90;8.70;;;;;;;7.60;70.13;100768.01;105563;1312;21971;-60
2022/12/14 19:32:01;;;;;;;13.70;8.90;;;;;;;7.75;69.43;100763.38;105547;1311;21959;-58
2022/12/14 19:34:27;;;;;;;14.90;8.70;;;;;;;7.79;69.18;100762.52;105562;1312;21981;-59
2022/12/14 19:36:54;;;;;;;18.40;9.40;;;;;;;7.83;68.83;100762.20;105551;1312;21970;-58
2022/12/14 19:39:21;;;;;;;13.60;8.50;;;;;;;7.85;68.62;100760.81;105528;1312;23477;-60
2022/12/14 19:41:47;;;;;;;14.20;9.40;;;;;;;7.91;67.87;100764.16;105548;1312;21983;-58
2022/12/14 19:44:13;;;;;;;16.00;8.80;;;;;;;7.99;67.38;100764.89;105542;1307;21980;-59
2022/12/14 19:46:40;;;;;;;16.10;9.00;;;;;;;8.04;67.31;100761.59;105522;1306;21969;-59
2022/12/14 19:49:10;;;;;;;14.30;8.20;;;;;;;8.09;67.41;100758.99;105529;1312;21990;-59
2022/12/14 19:51:38;;;;;;;14.20;8.00;;;;;;;8.17;67.11;100756.40;105516;1311;21992;-60
2022/12/14 19:54:05;;;;;;;13.50;7.70;;;;;;;8.08;67.32;100760.72;105509;1311;23105;-59
2022/12/14 19:56:31;;;;;;;13.20;7.70;;;;;;;8.05;67.51;100759.84;105577;1312;21985;-60
2022/12/14 19:59:02;;;;;;;14.20;8.30;;;;;;;8.14;67.10;100752.19;105543;1311;21970;-60
2022/12/14 20:01:36;;;;;;;14.60;8.50;;;;;;;8.23;66.86;100744.52;105588;1312;21974;-59
2022/12/14 20:04:05;;;;;;;17.30;9.70;;;;;;;8.23;66.72;100744.17;105520;1307;21980;-59
2022/12/14 20:06:32;;;;;;;16.50;8.30;;;;;;;8.27;66.63;100745.08;105612;1312;21977;-59
2022/12/14 20:09:00;;;;;;;16.60;8.70;;;;;;;8.12;66.69;100743.80;105501;1311;21972;-59
2022/12/14 20:11:26;;;;;;;16.60;8.10;;;;;;;8.12;66.91;100746.24;105548;1311;21965;-58
2022/12/14 20:13:53;;;;;;;14.30;8.00;;;;;;;8.14;66.86;100743.98;105568;1312;21967;-60
2022/12/14 20:16:20;;;;;;;13.70;8.30;;;;;;;8.09;66.84;100748.86;105581;1309;21993;-58
2022/12/14 20:18:46;;;;;;;13.10;7.90;;;;;;;8.05;66.84;100752.15;105513;1312;21971;-59
2022/12/14 20:21:13;;;;;;;12.20;7.70;;;;;;;8.10;66.45;100745.54;105523;1310;21954;-58
2022/12/14 20:23:39;;;;;;;17.00;7.80;;;;;;;8.03;66.54;100744.63;105522;1312;22017;-58
2022/12/14 20:26:10;;;;;;;14.50;7.70;;;;;;;7.81;66.81;100749.77;105592;1312;22062;-58
2022/12/14 20:28:35;;;;;;;13.10;7.80;;;;;;;7.74;67.03;100753.23;104859;1312;1002967;-58
2022/12/14 20:31:07;;;;;;;14.00;9.20;;;;;;;7.75;66.97;100750.09;105564;1305;21978;-58
2022/12/14 20:33:33;;;;;;;12.80;7.60;;;;;;;7.78;66.78;100748.20;105545;1312;21971;-59
2022/12/14 20:36:00;;;;;;;12.40;8.30;;;;;;;7.75;66.66;100747.83;105535;1312;23029;-58
2022/12/14 20:38:26;;;;;;;15.90;9.20;;;;;;;7.76;66.71;100750.80;105591;1311;22451;-59
2022/12/14 20:40:52;;;;;;;12.50;8.10;;;;;;;7.65;66.99;100748.65;105560;1299;22000;-59
2022/12/14 20:43:18;;;;;;;13.30;8.30;;;;;;;7.57;67.72;100747.02;105532;1310;21951;-60
2022/12/14 20:45:47;;;;;;;15.30;7.60;;;;;;;7.59;67.68;100746.86;105612;1309;22029;-59
2022/12/14 20:48:13;;;;;;;13.80;9.60;;;;;;;7.59;67.52;100745.46;105592;1307;21982;-59
2022/12/14 20:50:41;;;;;;;17.00;9.50;;;;;;;7.61;67.45;100742.86;105611;1310;21983;-59
2022/12/14 20:53:06;;;;;;;14.40;9.30;;;;;;;7.66;67.43;100742.89;105701;1312;21980;-57
2022/12/14 20:55:33;;;;;;;17.80;10.30;;;;;;;7.70;66.63;100743.61;105612;1311;21985;-58
2022/12/14 20:57:58;;;;;;;13.80;9.40;;;;;;;7.77;66.40;100738.05;105676;1311;22438;-58
2022/12/14 21:00:24;;;;;;;19.10;10.60;;;;;;;7.86;66.32;100733.73;105559;1311;21972;-59
2022/12/14 21:02:53;;;;;;;18.50;11.10;;;;;;;7.81;66.22;100730.22;105572;1312;21999;-58
2022/12/14 21:05:18;;;;;;;19.50;9.90;;;;;;;7.84;66.12;100723.77;105607;1312;21966;-57
2022/12/14 21:07:44;;;;;;;14.60;10.10;;;;;;;8.05;65.97;100718.78;105643;1312;21988;-57
2022/12/14 21:10:10;;;;;;;18.90;12.00;;;;;;;8.16;65.48;100713.40;105622;1307;21982;-57
2022/12/14 21:12:36;;;;;;;17.00;9.90;;;;;;;8.22;65.04;100710.44;105595;1309;21985;-57
2022/12/14 21:15:02;;;;;;;14.20;9.40;;;;;;;8.27;64.91;100703.30;105659;1310;21968;-58
2022/12/14 21:17:28;;;;;;;14.50;9.60;;;;;;;8.26;64.47;100695.59;105660;1312;22015;-57
2022/12/14 21:19:54;;;;;;;16.00;10.00;;;;;;;8.26;64.61;100692.27;105634;1312;21982;-58
2022/12/14 21:22:21;;;;;;;14.40;9.50;;;;;;;8.21;64.61;100690.33;105604;1312;21952;-57
2022/12/14 21:24:47;;;;;;;15.80;8.90;;;;;;;8.18;64.50;100689.27;105669;1306;21978;-57
2022/12/14 21:27:21;;;;;;;14.00;8.90;;;;;;;8.19;64.76;100694.00;105688;1312;21975;-58
2022/12/14 21:29:47;;;;;;;13.70;9.40;;;;;;;8.25;64.92;100690.34;105601;1311;21980;-57
2022/12/14 21:32:13;;;;;;;16.60;9.90;;;;;;;8.32;64.87;100691.77;104852;1309;1002268;-58
2022/12/14 21:34:42;;;;;;;17.20;9.00;;;;;;;8.30;64.46;100693.85;105586;1312;21968;-58
2022/12/14 21:37:08;;;;;;;13.10;8.80;;;;;;;8.19;64.60;100695.23;105699;1312;22007;-57
2022/12/14 21:39:35;;;;;;;14.10;9.00;;;;;;;8.10;65.06;100687.52;105623;1308;21979;-57
2022/12/14 21:42:14;;;;;;;14.20;8.90;;;;;;;8.09;65.05;100684.70;105552;1312;21991;-58
2022/12/14 21:44:45;;;;;;;15.00;8.80;;;;;;;8.10;65.18;100677.38;105584;1308;21986;-57
2022/12/14 21:47:13;;;;;;;16.80;8.80;;;;;;;8.11;65.16;100671.79;105617;1312;22016;-59
2022/12/14 21:49:39;;;;;;;12.70;8.20;;;;;;;8.12;65.33;100661.30;105612;1307;21977;-58
2022/12/14 21:52:05;;;;;;;14.30;8.00;;;;;;;8.15;65.57;100650.48;105677;1311;22948;-57
2022/12/14 21:54:31;;;;;;;15.90;8.40;;;;;;;8.14;65.67;100639.64;105634;1312;21982;-58
